Time;durP1;ratioP1;P1;durP2;ratioP2;P2;SDS_P1;SDS_P2;PMS_P1;PMS_P2;Temp;Humidity;BMP_temperature;BMP_pressure;BME280_temperature;BME280_humidity;BME280_pressure;Samples;Min_cycle;Max_cycle;Signal;HPM_P1;HPM_P2
2023/11/07 00:00:22;;;;;;;26.52;9.82;;;;;;;;;;5114972;28;20047;-73
2023/11/07 00:03:27;;;;;;;27.15;12.00;;;;;;;;;;5114600;28;20046;-72
2023/11/07 00:06:32;;;;;;;24.17;10.88;;;;;;;;;;5114542;28;20050;-71
2023/11/07 00:09:36;;;;;;;24.63;10.88;;;;;;;;;;5114381;28;20047;-73
2023/11/07 00:12:40;;;;;;;27.13;10.25;;;;;;;;;;5113521;28;20039;-71
2023/11/07 00:15:44;;;;;;;28.60;10.57;;;;;;;;;;5114217;28;20062;-71
2023/11/07 00:18:49;;;;;;;25.05;10.32;;;;;;;;;;5114076;28;20050;-71
2023/11/07 00:21:54;;;;;;;25.13;10.95;;;;;;;;;;5114079;28;20038;-72
2023/11/07 00:24:58;;;;;;;29.02;9.88;;;;;;;;;;5114291;28;20051;-72
2023/11/07 00:28:03;;;;;;;29.67;10.10;;;;;;;;;;5113631;28;20529;-72
2023/11/07 00:31:07;;;;;;;25.35;8.90;;;;;;;;;;5112548;28;20063;-72
2023/11/07 00:34:11;;;;;;;27.58;9.93;;;;;;;;;;5113831;28;20039;-72
2023/11/07 00:37:16;;;;;;;23.52;8.55;;;;;;;;;;5113951;28;20055;-72
2023/11/07 00:40:20;;;;;;;24.52;9.27;;;;;;;;;;5112761;28;20042;-73
2023/11/07 00:43:24;;;;;;;27.83;8.55;;;;;;;;;;5113666;28;20043;-72
2023/11/07 00:46:29;;;;;;;23.95;9.15;;;;;;;;;;5112699;28;20046;-72
2023/11/07 00:49:33;;;;;;;22.73;8.32;;;;;;;;;;5112258;28;20042;-72
2023/11/07 00:52:41;;;;;;;23.73;8.68;;;;;;;;;;5113287;28;20051;-72
2023/11/07 00:55:45;;;;;;;23.58;8.07;;;;;;;;;;5113342;28;20043;-72
2023/11/07 00:58:49;;;;;;;21.95;8.55;;;;;;;;;;5112519;28;20043;-72
2023/11/07 01:01:53;;;;;;;21.42;7.70;;;;;;;;;;5113354;28;20395;-72
2023/11/07 01:04:58;;;;;;;25.40;8.15;;;;;;;;;;5112891;28;20035;-72
2023/11/07 01:08:02;;;;;;;24.17;7.88;;;;;;;;;;5112928;28;20043;-72
2023/11/07 01:11:06;;;;;;;25.52;7.47;;;;;;;;;;5112107;28;20070;-72
2023/11/07 01:14:10;;;;;;;16.15;7.15;;;;;;;;;;5112207;28;20042;-72
2023/11/07 01:17:15;;;;;;;22.52;7.15;;;;;;;;;;5112928;28;20054;-71
2023/11/07 01:20:19;;;;;;;18.50;7.10;;;;;;;;;;5112773;28;20038;-72
2023/11/07 01:23:24;;;;;;;19.42;6.88;;;;;;;;;;5112736;28;20050;-72
2023/11/07 01:26:28;;;;;;;22.08;6.38;;;;;;;;;;5112484;28;20046;-72
2023/11/07 01:29:32;;;;;;;22.42;6.45;;;;;;;;;;5112154;28;20054;-71
2023/11/07 01:32:38;;;;;;;18.30;5.88;;;;;;;;;;5112709;28;20050;-73
2023/11/07 01:35:42;;;;;;;22.70;7.07;;;;;;;;;;5112322;28;20046;-72
2023/11/07 01:38:46;;;;;;;30.63;7.05;;;;;;;;;;5111725;28;20054;-72
2023/11/07 01:41:51;;;;;;;21.45;5.97;;;;;;;;;;5112492;28;20043;-72
2023/11/07 01:44:55;;;;;;;19.17;5.65;;;;;;;;;;5112234;28;20035;-72
2023/11/07 01:47:59;;;;;;;21.50;5.90;;;;;;;;;;5112249;28;20055;-72
2023/11/07 01:51:04;;;;;;;19.58;5.78;;;;;;;;;;5111335;28;20051;-71
2023/11/07 01:54:08;;;;;;;17.70;5.80;;;;;;;;;;5112138;28;20376;-72
2023/11/07 01:57:13;;;;;;;19.90;6.25;;;;;;;;;;5112341;28;20038;-72
2023/11/07 02:00:18;;;;;;;19.02;6.05;;;;;;;;;;5111372;28;20039;-72
2023/11/07 02:03:24;;;;;;;17.00;5.78;;;15.80;99.90;;;;;;5112056;28;20506;-72
2023/11/07 02:06:29;;;;;;;17.80;6.43;;;;;;;;;;5111921;28;20043;-71
2023/11/07 02:09:33;;;;;;;21.17;6.03;;;;;;;;;;5112033;28;20054;-72
2023/11/07 02:12:37;;;;;;;16.30;6.03;;;;;;;;;;5112098;28;20038;-73
2023/11/07 02:15:45;;;;;;;19.23;5.88;;;;;;;;;;5112030;28;20042;-71
2023/11/07 02:18:50;;;;;;;18.25;5.70;;;;;;;;;;5110687;28;20054;-72
2023/11/07 02:21:59;;;;;;;23.85;5.72;;;;;;;;;;5111894;28;20066;-72
2023/11/07 02:25:03;;;;;;;21.80;6.03;;;;;;;;;;5111710;28;20046;-73
2023/11/07 02:28:08;;;;;;;19.77;5.32;;;;;;;;;;5111879;28;20062;-72
2023/11/07 02:31:12;;;;;;;18.42;5.70;;;;;;;;;;5111349;28;20095;-72
2023/11/07 02:34:18;;;;;;;23.20;5.53;;;;;;;;;;5111404;28;20035;-71
2023/11/07 02:37:22;;;;;;;19.88;5.40;;;;;;;;;;5111746;28;20038;-72
2023/11/07 02:40:27;;;;;;;23.20;6.07;;;;;;;;;;5111655;28;20517;-72
2023/11/07 02:43:31;;;;;;;19.98;6.32;;;;;;;;;;5111451;28;20047;-72
2023/11/07 02:46:37;;;;;;;19.77;5.78;;;;;;;;;;5110737;28;20047;-72
2023/11/07 02:49:42;;;;;;;19.98;5.30;;;;;;;;;;5111413;28;20043;-72
2023/11/07 02:52:46;;;;;;;15.68;5.50;;;;;;;;;;5111589;28;20054;-71
2023/11/07 02:55:50;;;;;;;18.13;4.93;;;;;;;;;;5110257;28;20043;-72
2023/11/07 02:58:55;;;;;;;16.25;4.57;;;;;;;;;;5111432;28;20399;-72
2023/11/07 03:02:01;;;;;;;26.10;5.90;;;;;;;;;;5111196;28;20051;-72
2023/11/07 03:05:05;;;;;;;22.95;5.50;;;;;;;;;;5110730;28;20042;-72
2023/11/07 03:08:13;;;;;;;20.27;4.85;;;;;;;;;;5110625;28;20042;-72
2023/11/07 03:11:17;;;;;;;18.42;5.32;;;;;;;;;;5112800;28;20502;-73
2023/11/07 03:14:22;;;;;;;13.07;4.38;;;;;;;;;;5114613;28;20062;-73
2023/11/07 03:17:26;;;;;;;17.70;4.60;;;;;;;;;;5115128;28;20042;-71
2023/11/07 03:20:32;;;;;;;17.67;4.70;;;;;;;;;;5115012;28;20035;-71
2023/11/07 03:23:36;;;;;;;17.45;4.70;;;;;;;;;;5115327;28;20047;-71
2023/11/07 03:26:40;;;;;;;25.63;5.00;;;;;;;;;;5115463;28;20119;-72
2023/11/07 03:29:44;;;;;;;18.17;4.85;;;;;;;;;;5114441;28;20047;-71
2023/11/07 03:32:49;;;;;;;18.35;4.88;;;;;;;;;;5114319;28;20051;-71
2023/11/07 03:35:53;;;;;;;18.08;4.55;;;;;;;;;;5114985;28;20042;-72
2023/11/07 03:38:57;;;;;;;14.00;4.18;;;;;;;;;;5115235;28;20035;-71
2023/11/07 03:42:02;;;;;;;16.48;5.32;;;;;;;;;;5114660;28;20043;-72
2023/11/07 03:45:06;;;;;;;20.33;4.82;;;;;;;;;;5114754;28;20395;-72
2023/11/07 03:48:12;;;;;;;15.27;4.70;;;;;;;;;;5114717;28;20066;-72
2023/11/07 03:51:15;;;;;;;18.75;4.75;;;;;;;;;;5114351;28;20050;-72
2023/11/07 03:54:23;;;;;;;21.67;4.97;;;;;;;;;;5114732;28;20038;-72
2023/11/07 03:57:27;;;;;;;19.90;5.13;;;;;;;;;;5114380;28;20042;-72
2023/11/07 04:00:32;;;;;;;19.75;4.05;;;;;;;;;;5114678;28;20398;-71
2023/11/07 04:03:36;;;;;;;23.92;7.00;;;;;;;;;;5113330;28;20039;-72
2023/11/07 04:06:41;;;;;;;23.60;4.43;;;;;;;;;;5114356;28;20521;-72
2023/11/07 04:09:45;;;;;;;18.05;4.78;;;;;;;;;;5114522;28;20046;-72
2023/11/07 04:12:51;;;;;;;19.50;5.40;;;;;;;;;;5113994;28;20395;-71
2023/11/07 04:15:56;;;;;;;17.48;4.50;;;;;;;;;;5114010;28;20046;-73
2023/11/07 04:19:01;;;;;;;26.52;4.50;;;;;;;;;;5114025;28;20047;-72
2023/11/07 04:22:05;;;;;;;18.75;3.97;;;;;;;;;;5113252;28;20039;-72
2023/11/07 04:25:10;;;;;;;21.17;4.53;;;;;;;;;;5114228;28;20050;-72
2023/11/07 04:28:16;;;;;;;18.02;4.32;;;;;;;;;;5114020;28;20038;-72
2023/11/07 04:31:20;;;;;;;16.67;4.25;;;;;;;;;;5113571;28;20051;-72
2023/11/07 04:34:25;;;;;;;19.95;4.45;;;;;;;;;;5113749;28;20039;-72
2023/11/07 04:37:29;;;;;;;21.40;4.65;;;;;;;;;;5113850;28;20047;-72
2023/11/07 04:40:33;;;;;;;15.98;4.57;;;;;;;;;;5113643;28;20047;-72
2023/11/07 04:43:38;;;;;;;20.83;4.65;;;;;;;;;;5113835;28;20034;-70
2023/11/07 04:46:43;;;;;;;23.00;4.28;;;;;;;;;;5113835;28;20498;-72
2023/11/07 04:49:47;;;;;;;21.25;4.43;;;;;;;;;;5113529;28;20054;-72
2023/11/07 04:52:53;;;;;;;19.63;4.45;;;;;;;;;;5113654;28;20043;-71
2023/11/07 04:55:57;;;;;;;12.18;3.80;;;;;;;;;;5112342;28;20043;-71
2023/11/07 04:59:02;;;;;;;16.98;3.97;;;;;;;;;;5113073;28;20403;-72
2023/11/07 05:02:08;;;;;;;19.25;4.00;;;;;;;;;;5113119;28;20038;-71
2023/11/07 05:05:14;;;;;;;14.40;3.78;;;;;;;;;;5112363;28;20110;-70
2023/11/07 05:08:18;;;;;;;17.40;3.65;;;;;;;;;;5113181;28;20387;-72
2023/11/07 05:11:23;;;;;;;23.52;5.03;;;;;;;;;;5112249;28;20383;-73
2023/11/07 05:14:27;;;;;;;17.70;4.20;;;;;;;;;;5112859;28;20043;-72
2023/11/07 05:17:32;;;;;;;14.90;3.95;;;;;;;;;;5112944;28;20047;-72
2023/11/07 05:20:39;;;;;;;14.48;4.07;;;;;;;;;;5113059;28;20046;-72
2023/11/07 05:23:43;;;;;;;12.75;4.45;;;;;;;;;;5113026;28;20042;-72
2023/11/07 05:26:48;;;;;;;19.05;4.10;;;;;;;;;;5113516;28;20043;-73
2023/11/07 05:29:52;;;;;;;18.25;3.97;;;;;;;;;;5112361;28;20042;-71
2023/11/07 05:32:57;;;;;;;15.93;4.40;;;;;;;;;;5112031;28;20039;-72
2023/11/07 05:36:01;;;;;;;20.90;4.90;;;;;;;;;;5112670;28;20042;-72
2023/11/07 05:39:06;;;;;;;16.38;4.00;;;;;;;;;;5113060;28;20388;-70
2023/11/07 05:42:11;;;;;;;16.48;4.05;;;;;;;;;;5112147;28;20050;-73
2023/11/07 05:45:15;;;;;;;21.20;4.40;;;;;;;;;;5112908;28;20046;-72
2023/11/07 05:48:24;;;;;;;15.00;4.03;;;;;;;;;;5113275;28;20506;-71
2023/11/07 05:51:28;;;;;;;20.27;4.32;;;;;;;;;;5112323;28;20655;-72
2023/11/07 05:54:32;;;;;;;26.30;5.03;;;;;;;;;;5112068;28;20042;-71
2023/11/07 05:57:39;;;;;;;17.42;3.60;;;;;;;;;;5112271;28;20051;-71
2023/11/07 06:00:44;;;;;;;15.93;4.30;;;;;;;;;;5112422;28;20046;-73
2023/11/07 06:03:50;;;;;;;17.75;4.68;;;;;;;;;;5112372;28;20042;-73
2023/11/07 06:06:54;;;;;;;19.45;4.13;;;;;;;;;;5112653;28;20039;-71
2023/11/07 06:09:58;;;;;;;18.17;4.88;;;;;;;;;;5112508;28;20046;-73
2023/11/07 06:13:05;;;;;;;17.58;3.92;;;;;;;;;;5111880;28;20064;-72
2023/11/07 06:16:09;;;;;;;17.80;4.47;;;;;;;;;;5111438;28;20046;-71
2023/11/07 06:19:14;;;;;;;15.73;4.10;;;;;;;;;;5111749;28;20062;-72
2023/11/07 06:22:18;;;;;;;17.42;4.20;;;;;;;;;;5111763;28;20055;-60
2023/11/07 06:25:24;;;;;;;13.35;4.43;;;;;;;;;;5111290;28;20047;-59
2023/11/07 06:28:31;;;;;;;19.83;5.80;;;;;;;;;;5111534;28;20042;-62
2023/11/07 06:31:36;;;;;;;26.65;6.50;;;;;;;;;;5111128;28;20059;-60
2023/11/07 06:34:43;;;;;;;16.10;5.10;;;;;;;;;;5111335;28;20034;-60
2023/11/07 06:37:47;;;;;;;17.42;4.85;;;;;;;;;;5111512;28;20097;-61
2023/11/07 06:40:51;;;;;;;15.93;4.22;;;;;;;;;;5111656;28;20050;-60
2023/11/07 06:43:56;;;;;;;13.75;4.72;;;;;;;;;;5111155;28;20395;-60
2023/11/07 06:47:00;;;;;;;27.95;6.10;;;;;;;;;;5113955;28;20047;-60
2023/11/07 06:50:07;;;;;;;19.75;4.97;;;;;;;;;;5115324;28;20042;-61
2023/11/07 06:53:12;;;;;;;22.67;5.47;;;;;;;;;;5115619;28;20050;-62
2023/11/07 06:56:16;;;;;;;20.73;4.40;;;;;;;;;;5115075;28;20039;-60
2023/11/07 06:59:21;;;;;;;16.17;4.63;;;;;;;;;;5115227;28;20530;-60
2023/11/07 07:02:25;;;;;;;22.83;4.53;;;;;;;;;;5115265;28;20053;-60
2023/11/07 07:05:29;;;;;;;18.20;4.07;;;;;;;;;;5115223;28;20042;-61
2023/11/07 07:08:34;;;;;;;19.70;4.38;;;;;;;;;;5115091;28;20047;-61
2023/11/07 07:11:38;;;;;;;17.30;5.03;;;;;;;;;;5114952;28;20071;-62
2023/11/07 07:14:44;;;;;;;17.33;4.05;;;;;;;;;;5115009;28;20387;-63
2023/11/07 07:17:48;;;;;;;13.07;3.80;;;;;;;;;;5114891;28;20042;-61
2023/11/07 07:20:55;;;;;;;19.00;4.50;;;;;;;;;;5115017;28;20039;-61
2023/11/07 07:23:59;;;;;;;16.25;4.10;;;;;;;;;;5114093;28;20058;-62
2023/11/07 07:27:03;;;;;;;15.60;4.28;;;;;;;;;;5114977;28;20042;-62
2023/11/07 07:30:09;;;;;;;19.98;4.60;;;;;;;;;;5113655;28;20067;-63
2023/11/07 07:33:16;;;;;;;17.02;4.93;;;;;;;;;;5114078;28;20056;-61
2023/11/07 07:36:22;;;;;;;24.88;4.90;;;;;;;;;;5114464;28;20043;-62
2023/11/07 07:39:29;;;;;;;27.25;4.85;;;;;;;;;;5114788;28;20153;-62
2023/11/07 07:42:33;;;;;;;18.52;4.25;;;;;;;;;;5114718;28;20047;-62
2023/11/07 07:45:39;;;;;;;15.07;4.00;;;17.50;99.90;;;;;;5114371;28;20057;-63
2023/11/07 07:48:45;;;;;;;27.42;4.43;;;;;;;;;;5114594;28;20422;-68
2023/11/07 07:51:58;;;;;;;22.33;4.82;;;17.50;99.90;;;;;;5114048;28;20137;-67
2023/11/07 07:55:02;;;;;;;15.48;4.47;;;;;;;;;;5114257;28;20047;-68
2023/11/07 07:58:06;;;;;;;24.38;5.40;;;;;;;;;;5114395;28;20039;-66
2023/11/07 08:01:12;;;;;;;19.33;5.32;;;;;;;;;;5112837;28;20054;-65
2023/11/07 08:04:16;;;;;;;27.20;5.95;;;;;;;;;;5113962;28;20522;-66
2023/11/07 08:07:20;;;;;;;24.08;5.38;;;;;;;;;;5113990;28;20051;-67
2023/11/07 08:10:26;;;;;;;30.98;6.80;;;;;;;;;;5114101;28;20058;-69
2023/11/07 08:13:31;;;;;;;27.38;7.60;;;;;;;;;;5113912;28;20046;-68
2023/11/07 08:16:36;;;;;;;19.23;5.63;;;;;;;;;;5113309;28;20050;-69
2023/11/07 08:19:40;;;;;;;22.17;5.65;;;;;;;;;;5113704;28;20051;-67
2023/11/07 08:22:49;;;;;;;21.40;5.47;;;17.40;99.90;;;;;;5114253;28;20046;-69
2023/11/07 08:25:53;;;;;;;25.70;6.53;;;;;;;;;;5113834;28;20047;-67
2023/11/07 08:28:59;;;;;;;23.23;5.47;;;;;;;;;;5114284;28;20042;-67
2023/11/07 08:32:04;;;;;;;34.33;5.85;;;;;;;;;;5113744;28;20053;-67
2023/11/07 08:35:15;;;;;;;24.50;6.07;;;16.50;99.90;;;;;;5113400;28;20039;-69
2023/11/07 08:38:20;;;;;;;19.90;4.95;;;;;;;;;;5112796;28;20043;-68
2023/11/07 08:41:25;;;;;;;22.75;5.80;;;;;;;;;;5113692;28;20042;-69
2023/11/07 08:44:30;;;;;;;15.88;4.38;;;;;;;;;;5113327;28;20043;-68
2023/11/07 08:47:34;;;;;;;14.40;4.60;;;;;;;;;;5113248;28;20043;-67
2023/11/07 08:50:39;;;;;;;10.88;3.95;;;;;;;;;;5112934;28;20078;-67
2023/11/07 08:53:44;;;;;;;22.08;5.75;;;18.20;99.90;;;;;;5111813;28;20506;-67
2023/11/07 08:56:49;;;;;;;25.45;6.68;;;;;;;;;;5112888;28;20423;-68
2023/11/07 08:59:53;;;;;;;20.65;5.47;;;;;;;;;;5113110;28;20506;-68
2023/11/07 09:02:57;;;;;;;14.00;4.50;;;;;;;;;;5113110;28;20498;-68
2023/11/07 09:06:01;;;;;;;15.05;4.70;;;;;;;;;;5112710;28;20035;-68
2023/11/07 09:09:07;;;;;;;11.52;3.92;;;18.80;99.90;;;;;;5112269;28;20043;-68
2023/11/07 09:12:12;;;;;;;21.00;5.30;;;;;;;;;;5112560;28;20371;-69
2023/11/07 09:15:19;;;;;;;31.73;6.70;;;;;;;;;;5112808;28;20050;-67
2023/11/07 09:18:26;;;;;;;34.25;10.90;;;;;;;;;;5112523;28;20042;-67
2023/11/07 09:21:29;;;;;;;29.98;11.13;;;;;;;;;;5112424;28;20058;-67
2023/11/07 09:24:34;;;;;;;21.08;7.80;;;;;;;;;;5112393;28;20042;-68
2023/11/07 09:27:38;;;;;;;27.33;6.95;;;;;;;;;;5112804;28;20050;-68
2023/11/07 09:30:43;;;;;;;26.50;6.00;;;;;;;;;;5111216;28;20047;-65
2023/11/07 09:33:47;;;;;;;19.60;6.22;;;;;;;;;;5111377;28;20530;-67
2023/11/07 09:36:52;;;;;;;27.17;11.95;;;;;;;;;;5111633;28;20034;-66
2023/11/07 09:39:56;;;;;;;33.97;7.03;;;;;;;;;;5099866;28;20058;-65
2023/11/07 09:43:02;;;;;;;24.65;5.80;;;17.10;99.90;;;;;;5112070;28;20050;-66
2023/11/07 09:46:07;;;;;;;20.67;5.70;;;;;;;;;;5112343;28;20051;-66
2023/11/07 09:49:12;;;;;;;26.80;6.10;;;;;;;;;;5112546;28;20526;-65
2023/11/07 09:52:19;;;;;;;27.08;6.40;;;18.80;99.90;;;;;;5111961;28;20050;-66
2023/11/07 09:55:28;;;;;;;23.90;6.65;;;18.10;99.90;;;;;;5111863;28;20046;-66
2023/11/07 09:58:34;;;;;;;16.95;5.75;;;18.20;99.90;;;;;;5111856;28;20502;-62
2023/11/07 10:01:39;;;;;;;19.98;6.72;;;;;;;;;;5111706;28;20047;-62
2023/11/07 10:04:47;;;;;;;21.80;6.50;;;17.90;99.90;;;;;;5110500;28;20054;-62
2023/11/07 10:07:52;;;;;;;25.55;6.50;;;;;;;;;;5110520;28;20114;-62
2023/11/07 10:11:13;;;;;;;19.85;4.85;;;19.30;99.90;;;;;;5111668;28;20506;-62
2023/11/07 10:14:18;;;;;;;22.33;6.00;;;;;;;;;;5111634;28;20588;-63
2023/11/07 10:17:23;;;;;;;23.15;4.85;;;;;;;;;;5111720;28;20050;-63
2023/11/07 10:20:29;;;;;;;17.48;5.78;;;;;;;;;;5111709;28;20043;-64
2023/11/07 10:23:34;;;;;;;16.60;3.75;;;;;;;;;;5111492;28;20047;-64
2023/11/07 10:27:02;;;;;;;23.40;4.80;;;18.10;99.90;;;;;;5111431;28;20041;-64
2023/11/07 10:30:09;;;;;;;22.13;5.13;;;;;;;;;;5111101;28;20415;-62
2023/11/07 10:33:32;;;;;;;17.33;3.85;;;18.70;99.90;;;;;;5111425;28;20407;-63
2023/11/07 10:36:41;;;;;;;18.90;4.50;;;18.10;99.90;;;;;;5111673;28;20398;-64
2023/11/07 10:39:55;;;;;;;17.30;4.03;;;18.20;99.90;;;;;;5111186;28;20084;-61
2023/11/07 10:43:01;;;;;;;21.65;4.25;;;;;;;;;;5111413;28;20522;-63
2023/11/07 10:46:09;;;;;;;19.02;3.95;;;18.20;99.90;;;;;;5111128;28;20047;-63
2023/11/07 10:49:14;;;;;;;19.75;3.90;;;;;;;;;;5110490;28;20506;-61
2023/11/07 10:52:18;;;;;;;16.45;3.15;;;;;;;;;;5110894;28;20050;-64
2023/11/07 10:55:23;;;;;;;21.05;4.85;;;;;;;;;;5110825;28;20045;-65
2023/11/07 10:58:31;;;;;;;18.98;5.38;;;18.20;99.90;;;;;;5111149;28;20047;-68
2023/11/07 11:01:40;;;;;;;28.38;7.07;;;18.20;99.90;;;;;;5110439;28;20062;-63
2023/11/07 11:04:47;;;;;;;19.58;5.50;;;18.20;99.90;;;;;;5110788;28;20161;-64
2023/11/07 11:07:57;;;;;;;26.55;4.53;;;18.60;99.90;;;;;;5111302;28;20062;-62
2023/11/07 11:11:03;;;;;;;19.23;4.90;;;18.40;99.90;;;;;;5111180;28;20499;-65
2023/11/07 11:14:09;;;;;;;17.88;5.00;;;;;;;;;;5110920;28;20063;-67
2023/11/07 11:17:38;;;;;;;20.83;4.60;;;18.30;99.90;;;;;;5111002;28;20038;-65
2023/11/07 11:20:58;;;;;;;22.35;4.85;;;18.40;99.90;;;;;;5110853;28;20047;-64
2023/11/07 11:24:16;;;;;;;24.42;5.60;;;;;;;;;;5098129;28;20046;-63
2023/11/07 11:27:58;;;;;;;23.73;4.80;;;18.30;99.90;;;;;;5109376;28;20046;-65
2023/11/07 11:31:05;;;;;;;19.30;4.35;;;;;;;;;;5110671;28;20050;-65
2023/11/07 11:34:29;;;;;;;27.23;5.03;;;18.40;99.90;;;;;;5114286;28;20043;-64
2023/11/07 11:38:23;;;;;;;21.60;4.80;;;18.30;99.90;;;;;;5114738;28;20062;-66
2023/11/07 11:42:05;;;;;;;29.45;5.20;;;18.20;99.90;;;;;;5114631;28;20093;-65
2023/11/07 11:45:26;;;;;;;26.88;5.32;;;18.70;99.90;;;;;;5068977;28;20063;-62
2023/11/07 11:48:51;;;;;;;23.88;4.85;;;19.10;99.90;;;;;;5069733;28;20043;-61
2023/11/07 11:51:57;;;;;;;21.60;3.58;;;;;;;;;;5078535;28;20600;-60
2023/11/07 11:55:08;;;;;;;18.27;3.63;;;;;;;;;;5114214;28;20054;-61
2023/11/07 11:58:16;;;;;;;22.65;4.30;;;19.90;99.90;;;;;;5114407;28;20047;-60
2023/11/07 12:01:22;;;;;;;22.77;3.72;;;;;;;;;;5101873;28;20043;-61
2023/11/07 12:04:30;;;;;;;19.15;3.50;;;18.20;99.90;;;;;;5114328;28;20038;-60
2023/11/07 12:07:34;;;;;;;20.08;3.35;;;;;;;;;;5114427;28;20047;-60
2023/11/07 12:10:55;;;;;;;19.40;3.60;;;18.70;99.90;;;;;;5113643;28;20039;-61
2023/11/07 12:14:09;;;;;;;21.17;3.53;;;18.70;99.90;;;;;;5113902;28;20047;-61
2023/11/07 12:17:14;;;;;;;15.43;3.60;;;;;;;;;;5113672;28;20046;-61
2023/11/07 12:20:19;;;;;;;21.23;3.78;;;;;;;;;;5113836;28;20038;-60
2023/11/07 12:23:25;;;;;;;19.58;4.20;;;;;;;;;;5113385;28;20054;-60
2023/11/07 12:26:41;;;;;;;27.13;4.68;;;18.70;99.90;;;;;;5113932;28;20383;-59
2023/11/07 12:29:46;;;;;;;20.92;4.30;;;;;;;;;;5114066;28;20062;-61
2023/11/07 12:33:09;;;;;;;15.50;3.75;;;18.50;99.90;;;;;;5112586;28;20074;-60
2023/11/07 12:36:14;;;;;;;17.48;3.60;;;18.60;99.90;;;;;;5113225;28;20038;-61
2023/11/07 12:39:18;;;;;;;17.83;3.38;;;;;;;;;;5113479;28;20380;-60
2023/11/07 12:42:23;;;;;;;15.18;3.50;;;18.50;99.90;;;;;;5113510;28;20050;-60
2023/11/07 12:45:29;;;;;;;22.75;3.92;;;18.60;99.90;;;;;;5113015;28;20050;-60
2023/11/07 12:48:37;;;;;;;21.63;4.25;;;18.70;99.90;;;;;;5113282;28;20038;-61
2023/11/07 12:51:41;;;;;;;17.63;3.38;;;;;;;;;;5113048;28;20046;-60
2023/11/07 12:54:46;;;;;;;18.70;3.88;;;;;;;;;;5113312;28;20055;-60
2023/11/07 12:57:51;;;;;;;15.20;3.45;;;;;;;;;;5113260;28;20039;-61
2023/11/07 13:01:04;;;;;;;20.45;3.90;;;18.80;99.90;;;;;;5100419;28;20043;-60
2023/11/07 13:04:19;;;;;;;12.07;3.90;;;18.70;99.90;;;;;;5112889;28;20047;-60
2023/11/07 13:07:23;;;;;;;18.38;2.80;;;;;;;;;;5113166;28;20043;-61
2023/11/07 13:10:33;;;;;;;24.38;4.07;;;19.40;99.90;;;;;;5112869;28;20043;-61
2023/11/07 13:13:37;;;;;;;12.52;2.90;;;;;;;;;;5113079;28;20051;-60
2023/11/07 13:16:45;;;;;;;18.85;3.83;;;19.10;99.90;;;;;;5112749;28;20051;-59
2023/11/07 13:19:50;;;;;;;20.75;3.42;;;;;;;;;;5100126;28;20407;-63
2023/11/07 13:22:55;;;;;;;26.23;4.13;;;;;;;;;;5112754;28;20050;-59
2023/11/07 13:25:59;;;;;;;13.38;3.28;;;;;;;;;;5112444;28;20042;-59
2023/11/07 13:29:04;;;;;;;19.80;3.50;;;;;;;;;;5112478;28;20399;-60
2023/11/07 13:32:08;;;;;;;20.30;4.07;;;;;;;;;;5112466;28;20690;-64
2023/11/07 13:35:13;;;;;;;22.85;3.80;;;;;;;;;;5112217;28;20038;-62
2023/11/07 13:38:17;;;;;;;18.98;2.75;;;;;;;;;;5113033;28;20050;-65
2023/11/07 13:41:22;;;;;;;18.90;3.13;;;;;;;;;;5112374;28;20042;-63
2023/11/07 13:44:26;;;;;;;17.00;3.25;;;;;;;;;;5112130;28;20042;-63
2023/11/07 13:47:30;;;;;;;14.85;3.42;;;22.80;99.90;;;;;;5112447;28;20039;-61
2023/11/07 13:50:34;;;;;;;13.68;2.58;;;;;;;;;;5112073;28;20042;-64
2023/11/07 13:53:38;;;;;;;14.82;2.92;;;;;;;;;;5112370;28;20047;-64
2023/11/07 13:56:45;;;;;;;13.80;2.67;;;;;;;;;;5111844;28;20153;-63
2023/11/07 13:59:49;;;;;;;16.45;2.55;;;;;;;;;;5110884;28;20050;-65
2023/11/07 14:02:57;;;;;;;19.33;3.78;;;;;;;;;;5111730;28;20038;-64
2023/11/07 14:06:01;;;;;;;12.95;2.58;;;;;;;;;;5111679;28;20066;-66
2023/11/07 14:09:08;;;;;;;11.48;2.50;;;;;;;;;;5111945;28;20494;-64
2023/11/07 14:12:12;;;;;;;18.08;3.13;;;19.20;99.90;;;;;;5111608;28;20047;-65
2023/11/07 14:15:19;;;;;;;14.07;2.50;;;20.00;99.90;;;;;;5111819;28;20069;-61
2023/11/07 14:18:23;;;;;;;15.93;3.55;;;;;;;;;;5111770;28;20054;-65
2023/11/07 14:21:29;;;;;;;23.08;3.65;;;;;;;;;;5111093;28;20047;-64
2023/11/07 14:24:32;;;;;;;15.93;3.00;;;19.90;99.90;;;;;;5111544;28;20051;-63
2023/11/07 14:27:37;;;;;;;25.70;3.67;;;;;;;;;;5111523;28;20499;-64
2023/11/07 14:30:44;;;;;;;22.63;3.95;;;;;;;;;;5110371;28;20059;-63
2023/11/07 14:33:48;;;;;;;24.98;3.97;;;;;;;;;;5110411;28;20054;-62
2023/11/07 14:36:53;;;;;;;22.40;3.75;;;;;;;;;;5109348;28;20047;-62
2023/11/07 14:39:59;;;;;;;26.38;4.13;;;;;;;;;;5110081;28;20047;-62
2023/11/07 14:43:10;;;;;;;21.83;4.15;;;;;;;;;;5110333;28;20493;-63
2023/11/07 14:46:16;;;;;;;24.65;3.75;;;;;;;;;;5110489;28;20042;-62
2023/11/07 14:49:21;;;;;;;36.78;4.18;;;;;;;;;;5110065;28;20399;-63
2023/11/07 14:52:25;;;;;;;30.10;4.13;;;;;;;;;;5111008;28;20110;-62
2023/11/07 14:55:29;;;;;;;41.03;5.47;;;;;;;;;;5111485;28;20047;-63
2023/11/07 14:58:34;;;;;;;42.92;6.78;;;;;;;;;;5110776;28;20043;-63
2023/11/07 15:01:39;;;;;;;66.80;7.07;;;;;;;;;;5110829;28;20038;-62
2023/11/07 15:04:45;;;;;;;51.60;6.85;;;;;;;;;;5111150;28;20510;-65
2023/11/07 15:07:50;;;;;;;52.83;6.68;;;;;;;;;;5113054;28;20514;-61
2023/11/07 15:10:54;;;;;;;54.55;7.97;;;;;;;;;;5115008;28;20047;-62
2023/11/07 15:13:58;;;;;;;52.05;6.80;;;;;;;;;;5114984;28;20522;-61
2023/11/07 15:17:04;;;;;;;44.58;6.47;;;;;;;;;;5114964;28;20039;-62
2023/11/07 15:20:09;;;;;;;43.40;5.70;;;;;;;;;;5114839;28;20046;-61
2023/11/07 15:23:13;;;;;;;45.38;6.18;;;;;;;;;;5114695;28;20053;-63
2023/11/07 15:26:18;;;;;;;45.42;6.60;;;;;;;;;;5114233;28;20043;-64
2023/11/07 15:29:22;;;;;;;40.80;6.00;;;;;;;;;;5114115;28;20050;-65
2023/11/07 15:32:26;;;;;;;32.70;5.53;;;;;;;;;;5114562;28;20050;-64
2023/11/07 15:35:34;;;;;;;32.95;5.07;;;;;;;;;;5114405;28;20043;-63
2023/11/07 15:38:39;;;;;;;50.00;6.10;;;;;;;;;;5114502;28;20051;-62
2023/11/07 15:41:43;;;;;;;48.88;7.03;;;;;;;;;;5114789;28;20047;-64
2023/11/07 15:44:48;;;;;;;21.65;3.80;;;;;;;;;;5114555;28;20431;-64
2023/11/07 15:47:52;;;;;;;23.42;5.05;;;19.40;99.90;;;;;;5114029;28;20041;-63
2023/11/07 15:50:57;;;;;;;47.33;7.65;;;;;;;;;;5113531;28;20485;-63
2023/11/07 15:54:05;;;;;;;37.97;5.57;;;19.10;99.90;;;;;;5114351;28;20403;-63
2023/11/07 15:57:09;;;;;;;43.63;6.07;;;;;;;;;;5114197;28;20395;-63
2023/11/07 16:00:16;;;;;;;35.72;5.40;;;19.60;99.90;;;;;;5114327;28;20109;-63
2023/11/07 16:03:21;;;;;;;34.17;5.57;;;;;;;;;;5113855;28;20046;-63
2023/11/07 16:06:27;;;;;;;35.78;6.00;;;;;;;;;;5114086;28;20043;-62
2023/11/07 16:09:31;;;;;;;25.95;4.88;;;;;;;;;;5114067;28;20050;-62
2023/11/07 16:12:47;;;;;;;43.08;7.03;;;19.40;99.90;;;;;;5113816;28;20055;-63
2023/11/07 16:15:51;;;;;;;28.27;4.95;;;;;;;;;;5113795;28;20411;-63
2023/11/07 16:18:55;;;;;;;17.63;3.47;;;;;;;;;;5112985;28;20059;-63
2023/11/07 16:22:00;;;;;;;13.57;3.10;;;;;;;;;;5113791;28;20410;-63
2023/11/07 16:25:05;;;;;;;14.80;3.05;;;19.30;99.90;;;;;;5113610;28;20110;-63
2023/11/07 16:28:09;;;;;;;14.70;3.50;;;;;;;;;;5113357;28;20050;-64
2023/11/07 16:31:14;;;;;;;12.55;3.40;;;;;;;;;;5113311;28;20063;-63
2023/11/07 16:34:19;;;;;;;24.10;4.13;;;19.10;99.90;;;;;;5111841;28;20661;-64
2023/11/07 16:37:23;;;;;;;21.60;3.40;;;18.80;99.90;;;;;;5113617;28;20042;-64
2023/11/07 16:40:28;;;;;;;17.35;3.15;;;;;;;;;;5113423;28;20043;-64
2023/11/07 16:43:32;;;;;;;12.32;2.55;;;;;;;;;;5113373;28;20051;-64
2023/11/07 16:46:36;;;;;;;15.07;2.95;;;;;;;;;;5113492;28;20034;-63
2023/11/07 16:49:43;;;;;;;12.02;2.47;;;17.40;99.90;;;;;;5113205;28;20046;-63
2023/11/07 16:52:48;;;;;;;15.43;3.22;;;;;;;;;;5112917;28;20052;-65
2023/11/07 16:55:56;;;;;;;17.30;5.82;;;;;;;;;;5112685;28;20034;-62
2023/11/07 16:59:00;;;;;;;19.42;6.43;;;;;;;;;;5113267;28;20073;-64
2023/11/07 17:02:05;;;;;;;14.43;4.28;;;;;;;;;;5113155;28;20043;-65
2023/11/07 17:05:10;;;;;;;17.58;4.90;;;;;;;;;;5112894;28;20050;-64
2023/11/07 17:08:14;;;;;;;18.60;4.50;;;;;;;;;;5112812;28;20039;-64
2023/11/07 17:11:18;;;;;;;16.08;3.17;;;;;;;;;;5111874;28;20053;-64
2023/11/07 17:14:23;;;;;;;19.88;3.40;;;;;;;;;;5112616;28;20399;-66
2023/11/07 17:17:27;;;;;;;15.10;3.45;;;;;;;;;;5112718;28;20051;-64
2023/11/07 17:20:31;;;;;;;19.45;3.50;;;;;;;;;;5112711;28;20050;-64
2023/11/07 17:23:36;;;;;;;10.98;3.20;;;;;;;;;;5112314;28;20200;-65
2023/11/07 17:26:40;;;;;;;18.10;4.03;;;;;;;;;;5112420;28;20046;-64
2023/11/07 17:29:46;;;;;;;20.65;4.40;;;;;;;;;;5111671;28;20043;-63
2023/11/07 17:32:50;;;;;;;17.02;4.55;;;;;;;;;;5111868;28;20096;-65
2023/11/07 17:35:55;;;;;;;15.85;4.72;;;;;;;;;;5111601;28;20499;-64
2023/11/07 17:38:59;;;;;;;13.25;4.07;;;;;;;;;;5112167;28;20042;-64
2023/11/07 17:42:05;;;;;;;16.35;4.85;;;;;;;;;;5112327;28;20047;-64
2023/11/07 17:45:09;;;;;;;20.85;5.53;;;;;;;;;;5112483;28;20043;-64
2023/11/07 17:48:13;;;;;;;22.15;5.32;;;;;;;;;;5111053;28;20042;-64
2023/11/07 17:51:22;;;;;;;19.00;5.32;;;18.50;99.90;;;;;;5111969;28;20042;-64